TFM - Tactical Decision Aid (Experimental) INFO Settings
ID: Runway Winds: CIG/VIS Threshold: METAR Board: Map:

KHSV - Huntsville Intl

Updated at: 2304 UTC 20 Feb 2018
Latest TAF at: 1720 UTC 20 Feb 2018

TAF Board

Time2253Z21/00Z21/01Z21/02Z21/03Z21/04Z21/05Z21/06Z21/07Z21/08Z21/09Z21/10Z21/11Z21/12Z
TypeOBSPRVLPRVLPRVLPRVLPRVLPRVLPRVLPRVLPRVLPRVLPRVLPRVLPRVL
VIS10>6>6>6>6>6>6>6>6>6>6>6>6>6
CIG8550303030303030202020202020
CoverBKNBKNOVCOVCOVCOVCOVCOVCOVCOVCOVCOVCOVCOVC
FltCatVFRVFRMVFRMVFRMVFRMVFRMVFRMVFRMVFRMVFRMVFRMVFRMVFRMVFR
WX----------------------------
WDir170170150150150150150150160160160160160160
WSpd714101010101010101010101010
WGst--22------------------------
TAF
KHSV 201720Z 2018/2118 17014G22KT P6SM SCT030 BKN050
  FM210100 15010KT P6SM BKN030 OVC050
  FM210700 16010KT P6SM BKN020 OVC050
  FM211500 18013KT P6SM OVC020


METAR
KHSV 202253Z 17007KT 10SM BKN085 24/17 A3021 RMK AO2 SLP224 T02390172
KHSV 202153Z 18011KT 10SM SCT048 BKN075 25/17 A3019 RMK AO2 SLP217 T02500172

TAF/METAR Board Legend

Potential Impact
  None Marginal Slight Moderate High
Visibility (sm) >5 3≤X≤5 2≤X<3 0.5≤X<2 <0.5
Ceiling (100 ft) >30 10≤X≤30 6≤X<10 2≤X<6 <2
Wind Speed (kt) <10 10≤X<20 20≤X<30 ≥30
Wind Gust (kt) <15 15≤X<25 25≤X<35 ≥35
Weather No Wx Reported VCTS -TS,-FZRA TS,FZRA +TS,+FZRA





Page loaded:  23:04 UTC  |   03:04 PM Pacific  |   04:04 PM Mountain  |   05:04 PM Central  |   06:04 PM Eastern